createdAt,value
2022-12-26T00:02:24.400Z,3.78
2022-12-26T00:07:55.750Z,3.92
2022-12-26T00:13:39.659Z,4.60
2022-12-26T00:19:12.739Z,4.28
2022-12-26T00:24:43.919Z,4.13
2022-12-26T00:30:15.262Z,4.32
2022-12-26T00:35:46.417Z,4.53
2022-12-26T00:41:18.753Z,4.13
2022-12-26T00:46:50.494Z,4.50
2022-12-26T00:52:21.862Z,4.28
2022-12-26T00:57:54.602Z,3.80
2022-12-26T01:03:25.880Z,4.40
2022-12-26T01:08:57.340Z,3.88
2022-12-26T01:14:28.443Z,4.00
2022-12-26T01:19:59.763Z,4.25
2022-12-26T01:25:30.792Z,4.68
2022-12-26T01:31:04.273Z,4.10
2022-12-26T01:36:35.586Z,4.38
2022-12-26T01:42:18.008Z,4.25
2022-12-26T01:48:22.446Z,4.22
2022-12-26T01:53:56.380Z,4.03
2022-12-26T01:59:50.505Z,4.07
2022-12-26T02:05:35.761Z,4.75
2022-12-26T02:11:12.252Z,4.03
2022-12-26T02:16:43.688Z,3.75
2022-12-26T02:22:21.101Z,4.03
2022-12-26T02:28:10.844Z,3.63
2022-12-26T02:34:15.363Z,2.95
2022-12-26T02:39:55.881Z,3.60
2022-12-26T02:45:52.607Z,3.78
2022-12-26T02:51:45.363Z,3.40
2022-12-26T02:57:44.572Z,3.70
2022-12-26T03:03:38.035Z,3.50
2022-12-26T03:09:43.624Z,3.55
2022-12-26T03:15:18.837Z,3.78
2022-12-26T03:20:50.378Z,3.58
2022-12-26T03:26:41.360Z,3.30
2022-12-26T03:32:13.507Z,3.40
2022-12-26T03:38:06.464Z,3.80
2022-12-26T03:44:16.532Z,3.95
2022-12-26T03:50:10.592Z,3.35
2022-12-26T03:56:16.072Z,3.47
2022-12-26T04:02:06.736Z,3.35
2022-12-26T04:08:01.837Z,3.47
2022-12-26T04:19:43.962Z,3.15
2022-12-26T04:25:50.538Z,3.33
2022-12-26T04:31:54.747Z,3.42
2022-12-26T04:37:44.911Z,3.35
2022-12-26T04:43:48.492Z,3.50
2022-12-26T04:49:41.516Z,3.63
2022-12-26T04:55:12.999Z,3.47
2022-12-26T05:00:44.916Z,3.15
2022-12-26T05:06:36.434Z,3.67
2022-12-26T05:12:09.477Z,3.25
2022-12-26T05:17:59.394Z,3.10
2022-12-26T05:23:49.775Z,2.90
2022-12-26T05:29:21.172Z,3.20
2022-12-26T05:34:52.564Z,3.28
2022-12-26T05:40:23.883Z,2.88
2022-12-26T05:45:55.643Z,2.72
2022-12-26T05:51:27.592Z,2.65
2022-12-26T05:56:59.821Z,3.08
2022-12-26T06:02:31.083Z,2.78
2022-12-26T06:08:03.479Z,3.30
2022-12-26T06:13:34.892Z,2.80
2022-12-26T06:19:06.144Z,2.58
2022-12-26T06:24:37.456Z,3.00
2022-12-26T06:30:09.226Z,2.88
2022-12-26T06:35:40.588Z,2.50
2022-12-26T06:41:14.709Z,2.70
2022-12-26T06:46:46.912Z,2.47
2022-12-26T06:52:18.480Z,2.80
2022-12-26T06:57:52.596Z,2.67
2022-12-26T07:03:26.053Z,2.70
2022-12-26T07:09:02.835Z,2.95
2022-12-26T07:14:33.983Z,2.80
2022-12-26T07:20:08.617Z,2.50
2022-12-26T07:25:40.220Z,2.83
2022-12-26T07:31:19.989Z,2.75
2022-12-26T07:36:51.424Z,2.60
2022-12-26T07:42:22.587Z,2.30
2022-12-26T07:47:55.198Z,2.25
2022-12-26T07:53:26.750Z,2.42
2022-12-26T07:58:57.949Z,2.22
2022-12-26T08:04:29.013Z,2.17
2022-12-26T08:10:00.051Z,2.60
2022-12-26T08:15:32.582Z,2.42
2022-12-26T08:21:03.902Z,2.22
2022-12-26T08:26:35.099Z,2.53
2022-12-26T08:32:06.428Z,2.38
2022-12-26T08:37:37.366Z,2.47
2022-12-26T08:49:00.671Z,2.28
2022-12-26T08:54:32.119Z,2.58
2022-12-26T09:00:05.003Z,2.33
2022-12-26T09:05:36.000Z,2.35
2022-12-26T09:11:13.117Z,2.15
2022-12-26T09:16:50.432Z,2.60
2022-12-26T09:22:43.005Z,2.45
2022-12-26T09:28:14.173Z,2.45
2022-12-26T09:33:47.394Z,2.70
2022-12-26T09:39:18.485Z,2.70
2022-12-26T09:45:19.821Z,2.88
2022-12-26T09:50:51.982Z,2.88
2022-12-26T10:02:19.914Z,2.63
2022-12-26T10:08:12.861Z,2.60
2022-12-26T10:14:03.527Z,2.35
2022-12-26T10:20:01.626Z,2.72
2022-12-26T10:25:43.610Z,2.33
2022-12-26T10:31:35.810Z,2.67
2022-12-26T10:37:30.948Z,2.30
2022-12-26T10:43:16.483Z,2.60
2022-12-26T10:48:48.541Z,2.38
2022-12-26T10:54:20.393Z,2.50
2022-12-26T10:59:53.085Z,2.67
2022-12-26T11:05:48.841Z,2.50
2022-12-26T11:11:48.291Z,2.40
2022-12-26T11:17:28.970Z,2.42
2022-12-26T11:23:27.215Z,2.22
2022-12-26T11:29:21.181Z,2.65
2022-12-26T11:34:52.632Z,2.63
2022-12-26T11:40:27.655Z,2.20
2022-12-26T11:45:59.109Z,2.22
2022-12-26T11:51:43.807Z,2.35
2022-12-26T11:57:22.391Z,2.22
2022-12-26T12:02:53.884Z,2.15
2022-12-26T12:08:27.750Z,2.22
2022-12-26T12:25:12.368Z,2.35
2022-12-26T12:31:02.013Z,2.00
2022-12-26T12:37:14.317Z,1.83
2022-12-26T12:43:02.864Z,2.20
2022-12-26T12:48:49.457Z,2.22
2022-12-26T12:54:50.023Z,1.90
2022-12-26T13:00:23.760Z,1.75
2022-12-26T13:06:18.949Z,1.90
2022-12-26T13:12:02.800Z,2.00
2022-12-26T13:17:57.406Z,2.10
2022-12-26T13:29:42.749Z,1.90
2022-12-26T13:35:51.036Z,2.05
2022-12-26T13:41:41.521Z,1.77
2022-12-26T13:47:32.565Z,1.70
2022-12-26T13:53:04.468Z,1.77
2022-12-26T13:58:40.321Z,1.80
2022-12-26T14:04:52.144Z,1.73
2022-12-26T14:10:23.272Z,1.63
2022-12-26T14:16:01.047Z,1.48
2022-12-26T14:21:47.299Z,1.65
2022-12-26T14:27:32.240Z,1.48
2022-12-26T14:33:22.048Z,1.73
2022-12-26T14:39:21.398Z,1.77
2022-12-26T14:44:57.716Z,1.60
2022-12-26T14:50:45.708Z,1.60
2022-12-26T14:56:29.811Z,1.60
2022-12-26T15:02:19.304Z,1.70
2022-12-26T15:08:09.995Z,1.33
2022-12-26T15:14:14.978Z,1.55
2022-12-26T15:20:01.837Z,1.80
2022-12-26T15:26:12.103Z,1.42
2022-12-26T15:32:13.870Z,1.50
2022-12-26T15:38:12.995Z,1.38
2022-12-26T15:44:15.050Z,1.40
2022-12-26T15:49:52.230Z,1.70
2022-12-26T15:55:39.653Z,1.55
2022-12-26T16:01:11.614Z,1.50
2022-12-26T16:07:01.604Z,1.67
2022-12-26T16:12:34.605Z,1.67
2022-12-26T16:18:35.569Z,1.50
2022-12-26T16:24:11.971Z,1.58
2022-12-26T16:29:47.369Z,1.50
2022-12-26T16:35:27.446Z,1.50
2022-12-26T16:41:00.697Z,1.23
2022-12-26T16:46:33.382Z,1.60
2022-12-26T16:52:04.782Z,1.45
2022-12-26T16:57:36.895Z,1.30
2022-12-26T17:03:11.398Z,1.60
2022-12-26T17:08:46.858Z,1.45
2022-12-26T17:14:32.243Z,1.48
2022-12-26T17:20:22.085Z,1.40
2022-12-26T17:26:22.311Z,1.35
2022-12-26T17:31:53.796Z,1.23
2022-12-26T17:37:25.603Z,1.45
2022-12-26T17:43:07.188Z,1.38
2022-12-26T17:48:38.389Z,1.30
2022-12-26T17:54:09.479Z,1.23
2022-12-26T17:59:41.186Z,1.10
2022-12-26T18:05:12.555Z,1.52
2022-12-26T18:10:43.744Z,1.50
2022-12-26T18:16:16.428Z,1.50
2022-12-26T18:21:47.826Z,1.38
2022-12-26T18:27:21.743Z,1.20
2022-12-26T18:32:54.217Z,1.27
2022-12-26T18:38:25.110Z,1.70
2022-12-26T18:43:58.163Z,1.60
2022-12-26T18:49:29.909Z,1.47
2022-12-26T18:55:01.183Z,1.77
2022-12-26T19:00:33.441Z,1.38
2022-12-26T19:06:05.167Z,1.20
2022-12-26T19:11:36.514Z,1.48
2022-12-26T19:17:07.513Z,1.52
2022-12-26T19:22:38.955Z,1.30
2022-12-26T19:28:10.270Z,1.48
2022-12-26T19:33:41.479Z,1.40
2022-12-26T19:39:12.645Z,1.42
2022-12-26T19:44:44.809Z,1.45
2022-12-26T19:50:16.038Z,1.52
2022-12-26T19:55:47.355Z,1.77
2022-12-26T20:01:21.824Z,1.73
2022-12-26T20:06:52.943Z,1.70
2022-12-26T20:12:24.164Z,1.45
2022-12-26T20:17:55.565Z,1.75
2022-12-26T20:23:27.257Z,1.60
2022-12-26T20:29:01.994Z,1.52
2022-12-26T20:34:32.971Z,1.63
2022-12-26T20:40:05.963Z,1.42
2022-12-26T20:45:38.254Z,1.50
2022-12-26T20:51:13.396Z,1.48
2022-12-26T20:56:45.641Z,1.40
2022-12-26T21:02:17.387Z,1.40
2022-12-26T21:07:49.062Z,1.67
2022-12-26T21:13:20.204Z,1.70
2022-12-26T21:18:51.661Z,1.55
2022-12-26T21:24:53.089Z,1.58
2022-12-26T21:30:25.749Z,1.40
2022-12-26T21:35:56.958Z,1.73
2022-12-26T21:41:27.972Z,1.70
2022-12-26T21:46:59.397Z,1.50
2022-12-26T21:52:30.719Z,1.80
2022-12-26T21:58:04.148Z,1.40
2022-12-26T22:09:25.801Z,1.45
2022-12-26T22:14:57.144Z,1.40
2022-12-26T22:20:28.369Z,1.20
2022-12-26T22:25:59.722Z,1.50
2022-12-26T22:31:36.897Z,1.20
2022-12-26T22:37:07.962Z,1.30
2022-12-26T22:42:39.186Z,1.15
2022-12-26T22:48:10.386Z,1.10
2022-12-26T22:53:42.701Z,1.20
2022-12-26T22:59:33.872Z,1.20
2022-12-26T23:05:09.314Z,1.20
2022-12-26T23:10:42.316Z,1.10
2022-12-26T23:16:22.856Z,1.27
2022-12-26T23:21:54.239Z,0.98
2022-12-26T23:27:44.225Z,1.10
2022-12-26T23:33:15.604Z,1.10
2022-12-26T23:38:46.914Z,0.90
2022-12-26T23:44:18.346Z,0.77
2022-12-26T23:49:49.321Z,0.80
2022-12-26T23:55:20.470Z,0.80
